Time;durP1;ratioP1;P1;durP2;ratioP2;P2;SDS_P1;SDS_P2;PMS_P1;PMS_P2;Temp;Humidity;BMP_temperature;BMP_pressure;BME280_temperature;BME280_humidity;BME280_pressure;Samples;Min_cycle;Max_cycle;Signal;HPM_P1;HPM_P2
2021/12/20 00:01:46;;;;;;;5.72;1.30;;;;;;;0.65;85.95;100915.94;1654679;85;21028;-74
2021/12/20 00:04:13;;;;;;;2.55;1.05;;;;;;;0.62;85.91;100916.27;1677611;85;20882;-75
2021/12/20 00:06:39;;;;;;;3.08;1.50;;;;;;;0.59;85.87;100914.90;1668676;85;21366;-75
2021/12/20 00:09:06;;;;;;;4.33;1.20;;;;;;;0.57;85.89;100913.99;1657502;85;20946;-75
2021/12/20 00:11:32;;;;;;;;;;;;;;;0.54;85.90;100906.27;1656935;86;20910;-75
2021/12/20 00:13:58;;;;;;;;;;;;;;;0.50;85.87;100901.53;1651872;85;20217;-75
2021/12/20 00:16:24;;;;;;;1.67;1.10;;;;;;;0.46;85.85;100912.44;1654677;85;20157;-75
2021/12/20 00:18:51;;;;;;;2.77;1.20;;;;;;;0.42;85.87;100910.62;1693910;83;20906;-75
2021/12/20 00:21:17;;;;;;;7.08;1.32;;;;;;;0.39;85.90;100915.61;1662652;85;21509;-75
2021/12/20 00:23:44;;;;;;;1.85;1.37;;;;;;;0.37;85.92;100915.11;1671086;85;20890;-75
2021/12/20 00:26:10;;;;;;;1.42;1.07;;;;;;;0.35;85.88;100918.88;1649262;85;20956;-74
2021/12/20 00:28:38;;;;;;;3.05;1.40;;;;;;;0.30;85.86;100924.23;1655365;85;20880;-75
2021/12/20 00:31:04;;;;;;;4.00;1.30;;;;;;;0.27;85.90;100935.18;1650489;84;20997;-75
2021/12/20 00:33:33;;;;;;;;;;;;;;;0.26;85.92;100940.22;1665651;84;21429;-74
2021/12/20 00:36:03;;;;;;;2.67;0.90;;;;;;;0.24;85.90;100944.39;1658544;85;20127;-74
2021/12/20 00:41:14;;;;;;;3.47;1.20;;;;;;;0.23;85.97;100955.38;1651304;85;20986;-74
2021/12/20 00:43:41;;;;;;;2.42;1.05;;;;;;;0.25;86.05;100952.07;1656133;85;25557;-74
2021/12/20 00:46:07;;;;;;;1.85;1.05;;;;;;;0.28;86.06;100948.77;1675577;85;21091;-74
2021/12/20 00:48:33;;;;;;;1.32;0.80;;;;;;;0.30;86.05;100944.59;1675312;85;20870;-74
2021/12/20 00:50:59;;;;;;;5.55;1.20;;;;;;;0.32;86.01;100937.86;1666799;85;21397;-74
2021/12/20 00:53:26;;;;;;;3.50;1.05;;;;;;;0.35;86.02;100940.91;1663405;85;21366;-74
2021/12/20 00:55:52;;;;;;;4.65;1.00;;;;;;;0.36;86.00;100932.05;1667338;85;20922;-74
2021/12/20 00:58:18;;;;;;;2.05;0.98;;;;;;;0.38;86.02;100930.42;1648183;85;20929;-74
2021/12/20 01:00:55;;;;;;;2.75;0.98;;;;;;;0.40;85.99;100941.50;1648146;86;20925;-75
2021/12/20 01:03:22;;;;;;;2.27;1.05;;;;;;;0.43;86.01;100949.64;1617967;85;20902;-75
2021/12/20 01:05:49;;;;;;;1.82;1.05;;;;;;;0.44;85.97;100947.55;1675563;85;20945;-75
2021/12/20 01:08:17;;;;;;;3.20;1.10;;;;;;;0.46;86.00;100944.23;1675177;85;20902;-74
2021/12/20 01:10:50;;;;;;;6.70;1.52;;;;;;;0.48;85.98;100943.88;1648227;85;21033;-74
2021/12/20 01:13:17;;;;;;;4.00;1.17;;;;;;;0.51;85.99;100938.87;1648628;85;20913;-75
2021/12/20 01:15:49;;;;;;;2.08;1.00;;;;;;;0.54;86.00;100936.39;1653491;83;20874;-75
2021/12/20 01:18:12;;;;;;;3.42;1.50;;;;;;;0.57;85.97;100936.89;1693226;84;20918;-75
2021/12/20 01:20:38;;;;;;;3.37;1.07;;;;;;;0.57;85.99;100937.75;1680493;84;26838;-75
2021/12/20 01:23:05;;;;;;;3.77;1.22;;;;;;;0.60;86.00;100946.75;1632966;86;20913;-75
2021/12/20 01:25:32;;;;;;;3.52;1.30;;;;;;;0.62;86.00;100941.70;1648007;86;20905;-75
2021/12/20 01:27:58;;;;;;;3.08;1.10;;;;;;;0.63;85.93;100935.39;1648235;85;24759;-75
2021/12/20 01:30:26;;;;;;;1.85;1.00;;;;;;;0.64;85.93;100933.30;1635838;85;21430;-75
2021/12/20 01:32:54;;;;;;;2.70;1.17;;;;;;;0.64;85.93;100933.30;1655972;85;20989;-74
2021/12/20 01:35:23;;;;;;;1.65;0.75;;;;;;;0.66;85.95;100939.70;1675636;85;20957;-74
2021/12/20 01:37:50;;;;;;;2.70;0.90;;;;;;;0.66;85.91;100933.34;1652509;85;20894;-75
2021/12/20 01:40:17;;;;;;;2.87;0.90;;;;;;;0.65;85.89;100935.03;1656895;85;20913;-75
2021/12/20 01:42:44;;;;;;;5.65;1.22;;;;;;;0.66;85.88;100941.84;1648770;85;21549;-75
2021/12/20 01:45:16;;;;;;;2.42;0.90;;;;;;;0.66;85.89;100936.75;1648333;85;21508;-75
2021/12/20 01:47:47;;;;;;;1.75;1.00;;;;;;;0.68;85.88;100937.20;1659767;84;21747;-75
2021/12/20 01:50:36;;;;;;;2.15;0.98;;;;;;;0.67;85.85;100940.16;1647821;85;20910;-75
2021/12/20 01:52:43;;;;;;;3.17;0.75;;;;;;;0.69;85.90;100950.39;1647776;84;21025;-75
2021/12/20 01:55:13;;;;;;;1.42;0.85;;;;;;;0.70;85.87;100952.11;1648680;86;20950;-75
2021/12/20 01:57:40;;;;;;;2.83;0.93;;;;;;;0.71;85.91;100952.56;1632446;85;20925;-75
2021/12/20 02:00:10;;;;;;;3.47;0.98;;;;;;;0.73;85.93;100956.02;1663540;85;20905;-74
2021/12/20 02:02:37;;;;;;;3.17;1.00;;;;;;;0.74;85.94;100953.92;1662108;85;20924;-75
2021/12/20 02:05:16;;;;;;;1.82;1.00;;;;;;;0.75;85.94;100949.29;1653771;85;21390;-75
2021/12/20 02:07:48;;;;;;;3.70;0.80;;;;;;;0.74;85.90;100952.25;1646989;86;21824;-75
2021/12/20 02:10:02;;;;;;;2.65;0.70;;;;;;;0.73;85.86;100945.43;1652895;85;21018;-75
2021/12/20 02:12:29;;;;;;;2.20;1.00;;;;;;;0.70;85.80;100935.16;1656267;85;21004;-75
2021/12/20 02:14:56;;;;;;;1.90;0.95;;;;;;;0.65;85.75;100935.03;1648182;85;20890;-75
2021/12/20 02:17:22;;;;;;;1.40;0.82;;;;;;;0.62;85.77;100933.66;1668137;84;20950;-75
2021/12/20 02:19:48;;;;;;;1.75;0.80;;;;;;;0.59;85.76;100928.89;1656115;84;20933;-75
2021/12/20 02:22:14;;;;;;;4.15;1.17;;;;;;;0.55;85.77;100925.39;1665317;85;20906;-75
2021/12/20 02:24:41;;;;;;;4.87;0.90;;;;;;;0.52;85.77;100934.21;1637749;86;21098;-74
2021/12/20 02:27:07;;;;;;;1.22;0.78;;;;;;;0.49;85.75;100937.97;1662708;85;20933;-74
2021/12/20 02:29:46;;;;;;;2.00;0.70;;;;;;;0.46;85.74;100936.60;1673008;84;20949;-74
2021/12/20 02:37:36;;;;;;;5.92;1.10;;;;;;;0.33;85.80;100939.19;1665211;84;20965;-74
2021/12/20 02:40:04;;;;;;;2.27;0.88;;;;;;;0.31;85.79;100933.59;1654760;85;20965;-75
2021/12/20 02:42:40;;;;;;;1.50;0.70;;;;;;;0.27;85.81;100945.36;1654620;86;20957;-75
2021/12/20 02:45:13;;;;;;;3.17;0.90;;;;;;;0.24;85.80;100943.98;1654811;86;20890;-75
2021/12/20 02:47:47;;;;;;;3.60;1.17;;;;;;;0.24;85.84;100943.98;1666683;85;20961;-74
2021/12/20 02:50:15;;;;;;;3.90;0.78;;;;;;;0.23;85.85;100952.43;1637770;85;20929;-74
2021/12/20 02:52:41;;;;;;;2.05;0.90;;;;;;;0.23;85.86;100950.30;1654452;85;20925;-74
2021/12/20 02:55:09;;;;;;;6.12;0.98;;;;;;;0.21;85.82;100940.48;1667626;85;20950;-75
2021/12/20 02:57:37;;;;;;;1.55;0.80;;;;;;;0.19;85.83;100936.62;1652204;85;20965;-75
2021/12/20 03:00:07;;;;;;;1.30;0.70;;;;;;;0.18;85.83;100940.39;1665709;84;20925;-75
2021/12/20 03:02:34;;;;;;;2.20;0.60;;;;;;;0.17;85.86;100939.52;1658601;84;20922;-75
2021/12/20 03:05:00;;;;;;;1.20;0.60;;;;;;;0.17;85.87;100936.12;1645608;86;20933;-75
2021/12/20 03:07:27;;;;;;;1.67;0.72;;;;;;;0.18;85.87;100936.58;1668192;85;28104;-75
2021/12/20 03:10:01;;;;;;;4.00;0.98;;;;;;;0.16;85.85;100933.98;1682088;84;20914;-75
2021/12/20 03:12:27;;;;;;;1.62;0.70;;;;;;;0.14;85.85;100933.08;1681566;84;20957;-75
2021/12/20 03:14:57;;;;;;;2.45;0.70;;;;;;;0.13;85.85;100938.11;1657068;85;21021;-75
2021/12/20 03:17:21;;;;;;;1.32;0.60;;;;;;;0.12;85.84;100927.48;1673531;83;20926;-75
2021/12/20 03:19:47;;;;;;;1.72;0.60;;;;;;;0.13;85.88;100927.94;1671685;83;20941;-74
2021/12/20 03:22:13;;;;;;;3.22;0.78;;;;;;;0.11;85.82;100934.25;1650292;85;20933;-74
2021/12/20 03:24:39;;;;;;;2.12;0.70;;;;;;;0.10;85.80;100941.42;1648167;85;20961;-74
2021/12/20 03:27:07;;;;;;;1.62;0.60;;;;;;;0.09;85.81;100945.19;1654518;85;20965;-74
2021/12/20 03:29:33;;;;;;;0.78;0.55;;;;;;;0.08;85.80;100953.62;1663430;85;20958;-74
2021/12/20 03:31:59;;;;;;;2.50;0.62;;;;;;;0.06;85.80;100957.80;1674371;85;20910;-75
2021/12/20 03:34:25;;;;;;;2.92;0.72;;;;;;;0.05;85.81;100956.94;1673617;84;20946;-75
2021/12/20 03:36:52;;;;;;;2.65;0.88;;;;;;;0.04;85.79;100954.34;1672567;85;21030;-75
2021/12/20 03:39:18;;;;;;;1.70;0.60;;;;;;;0.03;85.80;100953.89;1646963;85;21037;-75
2021/12/20 03:41:44;;;;;;;3.33;0.70;;;;;;;0.01;85.79;100955.11;1645985;86;21092;-75
2021/12/20 03:44:11;;;;;;;2.83;0.70;;;;;;;0.01;85.83;100966.55;1646299;85;27788;-74
2021/12/20 03:46:38;;;;;;;2.62;1.42;;;;;;;-0.01;85.85;100970.34;1638267;86;20914;-75
2021/12/20 03:49:06;;;;;;;;;;;;;;;-0.01;85.83;100977.97;1648685;86;21056;-75
2021/12/20 03:51:32;;;;;;;2.17;0.55;;;;;;;-0.02;85.82;100983.87;1646501;87;20165;-75
2021/12/20 03:53:58;;;;;;;1.95;0.55;;;;;;;-0.02;85.83;100981.33;1652116;85;21013;-75
2021/12/20 03:56:25;;;;;;;1.12;0.57;;;;;;;-0.02;85.87;100975.38;1646200;85;21113;-75
2021/12/20 03:58:52;;;;;;;1.67;0.68;;;;;;;-0.01;85.87;100983.47;1646102;86;21004;-75
2021/12/20 04:01:18;;;;;;;2.37;0.70;;;;;;;0.00;85.87;100983.92;1646329;85;21068;-75
2021/12/20 04:03:44;;;;;;;;;;;;;;;-0.01;85.86;100987.27;1650655;85;20961;-75
2021/12/20 04:06:12;;;;;;;;;;;;;;;-0.01;85.85;100992.36;1675982;85;20845;-75
2021/12/20 04:08:41;;;;;;;1.60;0.65;;;;;;;-0.04;85.82;100991.85;1649713;85;20174;-75
2021/12/20 04:11:08;;;;;;;1.42;0.57;;;;;;;-0.04;85.81;100994.39;1653143;85;20968;-75
2021/12/20 04:13:35;;;;;;;4.28;0.93;;;;;;;-0.05;85.84;101000.30;1674069;84;21028;-75
2021/12/20 04:16:02;;;;;;;2.90;0.90;;;;;;;-0.06;85.86;101001.11;1665799;84;20980;-75
2021/12/20 04:18:30;;;;;;;4.03;1.02;;;;;;;-0.06;85.85;100995.16;1670896;84;20950;-75
2021/12/20 04:20:56;;;;;;;2.42;0.60;;;;;;;-0.09;85.78;100995.05;1654615;85;20941;-75
2021/12/20 04:23:22;;;;;;;1.32;0.82;;;;;;;-0.11;85.80;100993.73;1655456;83;20933;-75
2021/12/20 04:25:48;;;;;;;1.80;0.70;;;;;;;-0.11;85.85;100991.19;1665705;84;20922;-75
2021/12/20 04:28:15;;;;;;;2.33;0.60;;;;;;;-0.11;85.83;100989.05;1654755;85;23639;-75
2021/12/20 04:30:42;;;;;;;1.77;1.00;;;;;;;-0.14;85.81;100988.95;1654732;85;20953;-75
2021/12/20 04:33:08;;;;;;;1.87;0.62;;;;;;;-0.16;85.84;100999.07;1656104;85;21517;-75
2021/12/20 04:35:35;;;;;;;1.05;0.55;;;;;;;-0.16;85.83;100999.48;1645872;86;21484;-75
2021/12/20 04:38:02;;;;;;;;;;;;;;;-0.16;85.85;100999.07;1656897;85;21434;-75
2021/12/20 04:40:29;;;;;;;0.90;0.60;;;;;;;-0.17;85.85;101002.83;1659206;85;20478;-75
2021/12/20 04:42:58;;;;;;;2.20;1.10;;;;;;;-0.18;85.82;101004.91;1681714;84;21549;-74
2021/12/20 04:45:28;;;;;;;2.50;0.80;;;;;;;-0.19;85.86;101006.59;1663608;85;21473;-74
2021/12/20 04:47:56;;;;;;;3.33;0.70;;;;;;;-0.20;85.84;101007.81;1661337;85;21497;-75
2021/12/20 04:50:24;;;;;;;1.85;0.68;;;;;;;-0.20;85.84;101004.00;1660500;85;21525;-75
2021/12/20 04:52:51;;;;;;;1.47;0.65;;;;;;;-0.20;85.86;101010.35;1674909;85;21490;-75
2021/12/20 04:55:17;;;;;;;1.32;0.70;;;;;;;-0.22;85.84;101011.56;1670398;85;21518;-75
2021/12/20 04:57:44;;;;;;;2.05;0.70;;;;;;;-0.22;85.83;101011.56;1675959;84;21481;-75
2021/12/20 05:00:15;;;;;;;2.37;0.95;;;;;;;-0.22;85.87;101011.56;1664435;85;21488;-75
2021/12/20 05:02:42;;;;;;;4.87;0.90;;;;;;;-0.21;85.89;101015.84;1677883;84;21492;-75
2021/12/20 05:05:09;;;;;;;2.77;0.90;;;;;;;-0.21;85.90;101013.30;1682217;84;20929;-75
2021/12/20 05:07:37;;;;;;;2.52;0.60;;;;;;;-0.21;85.86;101011.16;1676006;84;20929;-75
2021/12/20 05:10:11;;;;;;;3.62;0.85;;;;;;;-0.22;85.86;101003.95;1681436;85;21528;-75
2021/12/20 05:12:36;;;;;;;1.70;0.72;;;;;;;-0.23;85.86;101006.03;1675320;83;21355;-75
2021/12/20 05:15:03;;;;;;;1.55;0.60;;;;;;;-0.22;85.87;101009.44;1667332;85;21469;-75
2021/12/20 05:17:30;;;;;;;2.98;0.70;;;;;;;-0.23;85.90;101012.78;1680192;83;21411;-75
2021/12/20 05:19:56;;;;;;;4.95;0.85;;;;;;;-0.23;85.90;101007.30;1645396;84;21509;-75
2021/12/20 05:22:22;;;;;;;4.15;0.90;;;;;;;-0.24;85.85;101017.01;1655034;85;20858;-75
2021/12/20 05:24:48;;;;;;;5.87;0.80;;;;;;;-0.26;85.85;101014.81;1644883;85;20898;-75
2021/12/20 05:27:15;;;;;;;1.57;0.50;;;;;;;-0.26;85.89;101022.44;1642533;85;26827;-75
2021/12/20 05:29:41;;;;;;;7.08;1.20;;;;;;;-0.26;85.91;101031.74;1633900;86;20950;-75
2021/12/20 05:32:09;;;;;;;4.20;1.50;;;;;;;-0.28;85.88;101035.50;1627973;87;20961;-75
2021/12/20 05:34:35;;;;;;;2.60;1.00;;;;;;;-0.28;85.90;101046.94;1653858;86;20941;-75
2021/12/20 05:37:02;;;;;;;4.03;1.15;;;;;;;-0.27;85.90;101047.39;1642790;85;21473;-75
2021/12/20 05:39:29;;;;;;;1.98;0.95;;;;;;;-0.28;85.90;101046.94;1642277;85;20949;-75
2021/12/20 05:41:55;;;;;;;2.33;1.00;;;;;;;-0.29;85.91;101046.87;1643313;85;21378;-75
2021/12/20 05:44:21;;;;;;;2.20;1.20;;;;;;;-0.29;85.91;101046.47;1646816;85;26267;-75
2021/12/20 05:46:47;;;;;;;3.52;1.50;;;;;;;-0.28;85.88;101047.34;1645869;85;21482;-75
2021/12/20 05:49:14;;;;;;;1.70;0.88;;;;;;;-0.28;85.92;101055.83;1648806;85;20902;-75
2021/12/20 05:51:40;;;;;;;1.92;0.55;;;;;;;-0.29;85.92;101059.17;1641832;85;20910;-74
2021/12/20 05:54:06;;;;;;;4.35;1.05;;;;;;;-0.29;85.93;101062.12;1654829;85;22298;-75
2021/12/20 05:56:33;;;;;;;3.37;1.05;;;;;;;-0.29;85.93;101058.31;1648604;85;21567;-75
2021/12/20 05:58:59;;;;;;;9.45;2.00;;;;;;;-0.29;85.92;101063.39;1641509;85;20875;-75
2021/12/20 06:01:26;;;;;;;2.25;1.30;;;;;;;-0.29;85.93;101064.66;1650743;85;22026;-75
2021/12/20 06:03:52;;;;;;;2.00;0.90;;;;;;;-0.30;85.94;101073.97;1649466;85;21375;-73
2021/12/20 06:06:18;;;;;;;2.33;0.82;;;;;;;-0.30;85.95;101065.07;1654374;85;21765;-73
2021/12/20 06:08:45;;;;;;;4.40;1.20;;;;;;;-0.30;85.98;101065.07;1646154;85;20954;-73
2021/12/20 06:11:11;;;;;;;1.62;0.90;;;;;;;-0.29;85.95;101071.88;1630087;85;20934;-73
2021/12/20 06:13:37;;;;;;;4.62;0.72;;;;;;;-0.30;85.95;101076.50;1635439;86;20945;-73
2021/12/20 06:16:04;;;;;;;3.50;1.00;;;;;;;-0.30;85.95;101071.42;1645550;85;20926;-73
2021/12/20 06:18:30;;;;;;;;;;;;;;;-0.30;85.94;101074.37;1679940;85;20910;-74
2021/12/20 06:20:56;;;;;;;4.85;1.05;;;;;;;-0.30;86.00;101069.29;1652535;83;20245;-73
2021/12/20 06:23:22;;;;;;;4.40;1.05;;;;;;;-0.30;86.01;101075.64;1628986;86;20992;-73
2021/12/20 06:25:49;;;;;;;2.45;0.82;;;;;;;-0.31;85.96;101084.94;1642309;86;21112;-73
2021/12/20 06:28:15;;;;;;;7.20;1.25;;;;;;;-0.31;85.99;101092.56;1643952;85;21041;-73
2021/12/20 06:30:41;;;;;;;2.67;0.98;;;;;;;-0.31;85.99;101092.97;1671962;84;21529;-75
2021/12/20 06:33:09;;;;;;;4.95;1.52;;;;;;;-0.30;86.05;101098.10;1677052;84;21093;-76
2021/12/20 06:35:36;;;;;;;2.50;1.32;;;;;;;-0.28;86.01;101090.53;1649126;85;22212;-76
2021/12/20 06:38:05;;;;;;;3.12;1.00;;;;;;;-0.28;86.01;101096.48;1626714;86;20989;-76
2021/12/20 06:40:33;;;;;;;2.30;1.45;;;;;;;-0.28;86.01;101099.42;1625344;85;21052;-76
2021/12/20 06:43:00;;;;;;;3.95;1.27;;;;;;;-0.29;86.01;101101.10;1647173;86;20985;-76
2021/12/20 06:45:33;;;;;;;1.90;0.85;;;;;;;-0.26;86.04;101110.51;1653680;85;21100;-76
2021/12/20 06:47:56;;;;;;;6.37;1.12;;;;;;;-0.27;86.00;101107.52;1642298;82;20938;-76
2021/12/20 06:50:23;;;;;;;5.12;1.50;;;;;;;-0.28;86.00;101113.00;1648038;85;20964;-75
2021/12/20 06:52:49;;;;;;;3.22;1.22;;;;;;;-0.29;86.01;101112.54;1646418;85;21043;-75
2021/12/20 06:55:16;;;;;;;4.60;0.82;;;;;;;-0.30;86.01;101114.62;1649351;85;21084;-75
2021/12/20 06:57:42;;;;;;;2.72;1.02;;;;;;;-0.29;85.99;101115.08;1644834;85;21096;-75
2021/12/20 07:00:10;;;;;;;3.12;1.25;;;;;;;-0.30;86.05;101120.97;1637338;85;21110;-75
2021/12/20 07:02:36;;;;;;;3.92;1.15;;;;;;;-0.31;85.98;101119.64;1647703;85;21454;-75
2021/12/20 07:05:03;;;;;;;;;;;;;;;-0.32;86.00;101120.05;1642658;85;20965;-76
2021/12/20 07:07:29;;;;;;;3.50;1.70;;;;;;;-0.33;86.02;101122.13;1643760;85;20222;-75
2021/12/20 07:09:56;;;;;;;4.20;1.77;;;;;;;-0.36;85.96;101125.42;1635901;85;28074;-75
2021/12/20 07:12:23;;;;;;;3.70;1.40;;;;;;;-0.35;86.03;101135.19;1638377;85;26377;-75
2021/12/20 07:14:51;;;;;;;5.53;1.35;;;;;;;-0.37;86.04;101131.72;1647688;85;21615;-75
2021/12/20 07:17:18;;;;;;;6.62;1.40;;;;;;;-0.38;86.04;101137.20;1653052;85;20876;-75
2021/12/20 07:19:45;;;;;;;4.72;1.32;;;;;;;-0.38;86.08;101139.75;1647754;84;20952;-75
2021/12/20 07:22:11;;;;;;;3.00;1.47;;;;;;;-0.38;86.05;101146.09;1666046;84;20913;-75
2021/12/20 07:24:38;;;;;;;5.35;1.70;;;;;;;-0.39;86.06;101149.85;1659000;84;25066;-75
2021/12/20 07:27:05;;;;;;;;;;;;;;;-0.40;86.06;101149.39;1653800;85;21296;-75
2021/12/20 07:29:32;;;;;;;6.10;2.12;;;;;;;-0.41;86.10;101145.98;1662825;84;20095;-75
2021/12/20 07:31:58;;;;;;;5.40;2.30;;;;;;;-0.40;86.11;101150.66;1660396;84;20952;-76
2021/12/20 07:34:25;;;;;;;3.05;1.80;;;;;;;-0.41;86.11;101151.06;1661680;84;20902;-75
2021/12/20 07:36:53;;;;;;;2.77;1.45;;;;;;;-0.40;86.16;101149.39;1664350;84;20917;-75
2021/12/20 07:39:19;;;;;;;5.90;2.50;;;;;;;-0.38;86.20;101155.39;1673044;83;20932;-76
2021/12/20 07:41:47;;;;;;;5.83;1.50;;;;;;;-0.37;86.21;101155.86;1659585;84;26506;-77
2021/12/20 07:44:13;;;;;;;4.60;2.02;;;;;;;-0.35;86.17;101159.32;1664157;84;21494;-76
2021/12/20 07:46:40;;;;;;;3.05;1.80;;;;;;;-0.34;86.18;101163.59;1622679;85;21089;-80
2021/12/20 07:49:07;;;;;;;6.22;2.02;;;;;;;-0.35;86.16;101160.59;1657211;84;21073;-78
2021/12/20 07:51:33;;;;;;;3.50;1.90;;;;;;;-0.33;86.20;101161.52;1654861;84;21061;-76
2021/12/20 07:54:00;;;;;;;4.22;2.05;;;;;;;-0.29;86.20;101166.30;1649281;84;26961;-76
2021/12/20 07:56:26;;;;;;;4.35;2.05;;;;;;;-0.28;86.20;101170.57;1662335;84;21112;-76
2021/12/20 07:58:52;;;;;;;5.95;1.65;;;;;;;-0.28;86.15;101165.49;1654709;84;21103;-75
2021/12/20 08:01:19;;;;;;;4.28;1.98;;;;;;;-0.25;86.15;101177.04;1660067;84;21045;-75
2021/12/20 08:03:45;;;;;;;6.33;2.70;;;;;;;-0.24;86.17;101179.63;1665612;84;21104;-76
2021/12/20 08:06:11;;;;;;;;;;;;;;;-0.20;86.26;101173.86;1660456;84;21092;-75
2021/12/20 08:08:40;;;;;;;5.58;2.55;;;;;;;-0.15;86.29;101177.84;1655342;84;20229;-75
2021/12/20 08:11:07;;;;;;;3.75;1.98;;;;;;;-0.11;86.28;101180.95;1665238;84;21756;-75
2021/12/20 08:13:33;;;;;;;5.15;1.92;;;;;;;-0.09;86.21;101182.73;1661886;84;20935;-75
2021/12/20 08:16:00;;;;;;;4.05;2.10;;;;;;;-0.07;86.19;101187.88;1664408;84;21060;-76
2021/12/20 08:18:26;;;;;;;4.67;2.25;;;;;;;-0.03;86.15;101198.61;1665973;84;20957;-76
2021/12/20 08:20:52;;;;;;;;;;;;;;;-0.01;86.20;101199.53;1667162;83;21076;-76
2021/12/20 08:23:19;;;;;;;5.03;2.00;;;;;;;0.04;86.32;101203.08;1674742;83;20179;-76
2021/12/20 08:25:45;;;;;;;3.30;2.30;;;;;;;0.10;86.33;101210.06;1658525;83;20909;-76
2021/12/20 08:28:12;;;;;;;4.10;2.22;;;;;;;0.16;86.33;101203.92;1673766;83;20953;-75
2021/12/20 08:30:38;;;;;;;6.35;3.47;;;;;;;0.21;86.34;101203.27;1669221;83;21342;-76
2021/12/20 08:33:06;;;;;;;3.92;2.42;;;;;;;0.26;86.30;101213.20;1676362;83;21592;-76
2021/12/20 08:35:32;;;;;;;4.62;1.98;;;;;;;0.28;86.27;101211.58;1665495;83;21616;-76
2021/12/20 08:37:59;;;;;;;7.08;2.10;;;;;;;0.31;86.24;101215.50;1677137;83;21427;-76
2021/12/20 08:40:25;;;;;;;7.75;3.45;;;;;;;0.34;86.26;101222.38;1665706;83;21060;-76
2021/12/20 08:42:51;;;;;;;;;;;;;;;0.37;86.28;101222.48;1673697;83;21107;-76
2021/12/20 08:45:18;;;;;;;5.97;3.00;;;;;;;0.43;86.31;101225.64;1678551;83;20205;-76
2021/12/20 08:47:46;;;;;;;6.53;2.85;;;;;;;0.45;86.29;101224.89;1672290;83;21047;-76
2021/12/20 08:50:17;;;;;;;6.65;3.10;;;;;;;0.48;86.24;101222.86;1667814;84;20991;-76
2021/12/20 08:52:43;;;;;;;286.35;57.33;;;;;;;0.48;86.22;101233.03;1668723;83;21028;-75
2021/12/20 08:55:12;;;;;;;70.00;10.28;;;;;;;0.49;86.28;101226.72;1655049;85;21103;-76
2021/12/20 08:57:39;;;;;;;9.15;3.08;;;;;;;0.53;86.33;101227.66;1669823;83;20932;-76
2021/12/20 09:00:11;;;;;;;6.37;2.98;;;;;;;0.57;86.35;101231.64;1662425;84;21018;-76
2021/12/20 09:02:37;;;;;;;6.40;2.20;;;;;;;0.61;86.36;101233.87;1676956;83;20961;-76
2021/12/20 09:05:05;;;;;;;4.80;2.72;;;;;;;0.64;86.30;101233.98;1669449;83;21549;-75
2021/12/20 09:07:31;;;;;;;6.30;3.10;;;;;;;0.64;86.29;101229.77;1672298;83;20949;-77
2021/12/20 09:09:58;;;;;;;5.42;2.75;;;;;;;0.68;86.34;101235.82;1667774;83;25151;-76
2021/12/20 09:12:24;;;;;;;6.08;2.98;;;;;;;0.73;86.36;101235.98;1670489;83;20928;-73
2021/12/20 09:14:50;;;;;;;4.50;2.27;;;;;;;0.79;86.39;101235.78;1672684;83;20968;-76
2021/12/20 09:17:17;;;;;;;4.92;2.37;;;;;;;0.85;86.40;101239.80;1668252;83;25493;-75
2021/12/20 09:19:44;;;;;;;6.87;2.92;;;;;;;0.90;86.38;101243.36;1674591;83;20912;-75
2021/12/20 09:22:11;;;;;;;6.47;2.58;;;;;;;0.95;86.37;101251.16;1662257;84;24908;-75
2021/12/20 09:24:39;;;;;;;4.97;2.58;;;;;;;1.00;86.35;101253.45;1645088;85;21017;-74
2021/12/20 09:27:07;;;;;;;4.55;2.45;;;;;;;1.04;86.35;101248.88;1646850;85;20950;-75
2021/12/20 09:29:34;;;;;;;6.75;2.87;;;;;;;1.06;86.30;101252.34;1669548;84;20921;-75
2021/12/20 09:32:00;;;;;;;;;;;;;;;1.08;86.30;101257.08;1681151;83;20965;-75
2021/12/20 09:34:26;;;;;;;;;;;;;;;1.08;86.29;101250.71;1669266;84;20145;-75
2021/12/20 09:36:54;;;;;;;4.00;2.30;;;;;;;1.09;86.31;101256.27;1665821;84;20259;-75
2021/12/20 09:39:23;;;;;;;176.05;22.77;;;;;;;1.14;86.37;101258.95;1628815;85;21302;-75
2021/12/20 09:41:59;;;;;;;5.55;2.60;;;;;;;1.22;86.48;101270.27;1663242;84;21065;-75
2021/12/20 09:44:23;;;;;;;5.08;2.72;;;;;;;1.30;86.47;101261.19;1668446;84;21415;-75
2021/12/20 09:46:50;;;;;;;6.70;2.20;;;;;;;1.36;86.45;101260.52;1662570;84;20914;-75
2021/12/20 09:49:19;;;;;;;5.92;2.45;;;;;;;1.41;86.41;101258.56;1645946;85;20933;-75
2021/12/20 09:51:45;;;;;;;5.78;2.98;;;;;;;1.46;86.38;101257.44;1656664;84;20913;-75
2021/12/20 09:54:11;;;;;;;4.53;2.30;;;;;;;1.49;86.39;101257.13;1655321;84;20910;-75
2021/12/20 09:56:39;;;;;;;3.45;2.12;;;;;;;1.54;86.39;101260.69;1657165;84;20893;-75
2021/12/20 09:59:12;;;;;;;7.17;2.08;;;;;;;1.59;86.37;101268.44;1669804;83;20985;-75
2021/12/20 10:01:39;;;;;;;5.85;2.40;;;;;;;1.64;86.38;101271.99;1654871;84;21557;-75
2021/12/20 10:04:07;;;;;;;3.98;2.08;;;;;;;1.69;86.39;101272.14;1648231;84;32792;-75
2021/12/20 10:06:33;;;;;;;4.08;1.92;;;;;;;1.72;86.39;101276.92;1663371;84;25519;-75
2021/12/20 10:09:09;;;;;;;;;;;;;;;1.75;86.39;101266.81;1652118;85;20950;-75
2021/12/20 10:11:31;;;;;;;4.12;2.15;;;;;;;1.80;86.34;101279.30;1664837;84;20380;-75
2021/12/20 10:14:08;;;;;;;9.03;2.95;;;;;;;1.83;86.35;101279.80;1654042;84;20918;-74
2021/12/20 10:16:37;;;;;;;3.95;2.22;;;;;;;1.84;86.35;101278.56;1663149;84;20905;-75
2021/12/20 10:19:09;;;;;;;5.55;2.62;;;;;;;1.88;86.34;101278.25;1651319;85;21076;-75
2021/12/20 10:21:41;;;;;;;4.65;2.37;;;;;;;1.91;86.37;101279.20;1652812;85;20921;-75
2021/12/20 10:24:08;;;;;;;4.62;2.37;;;;;;;1.94;86.35;101274.19;1667790;83;21366;-75
2021/12/20 10:26:45;;;;;;;5.78;2.22;;;;;;;1.98;86.30;101278.98;1672186;83;20914;-75
2021/12/20 10:29:22;;;;;;;3.17;1.82;;;;;;;1.99;86.32;101284.53;1676275;83;21095;-75
2021/12/20 10:31:50;;;;;;;4.58;1.95;;;;;;;2.03;86.36;101281.25;1657021;84;21051;-75
2021/12/20 10:34:19;;;;;;;3.58;2.00;;;;;;;2.04;86.33;101279.56;1671867;83;21780;-75
2021/12/20 10:36:58;;;;;;;4.58;1.70;;;;;;;2.08;86.31;101280.94;1655088;84;21047;-77
2021/12/20 10:39:38;;;;;;;6.42;1.95;;;;;;;2.10;86.31;101286.95;1669382;84;21052;-74
2021/12/20 10:42:25;;;;;;;2.83;1.47;;;;;;;2.11;86.31;101291.23;1669785;83;21158;-75
2021/12/20 10:45:13;;;;;;;2.90;1.07;;;;;;;2.15;86.29;101288.36;1668473;83;21100;-75
2021/12/20 10:47:42;;;;;;;2.77;1.00;;;;;;;2.15;86.21;101292.19;1665639;84;22086;-75
2021/12/20 10:50:34;;;;;;;2.85;1.10;;;;;;;2.16;86.26;101287.13;1670036;83;20950;-75
2021/12/20 10:53:23;;;;;;;2.52;0.85;;;;;;;2.19;86.23;101288.50;1669216;85;21027;-75
2021/12/20 10:55:58;;;;;;;1.60;0.80;;;;;;;2.22;86.25;101297.92;1665591;84;21398;-75
2021/12/20 10:58:38;;;;;;;4.83;1.80;;;;;;;2.23;86.26;101291.59;1667825;83;20889;-76
2021/12/20 11:01:14;;;;;;;2.87;1.20;;;;;;;2.24;86.22;101292.05;1675218;83;20985;-76
2021/12/20 11:03:42;;;;;;;;;;;;;;;2.27;86.22;101297.65;1669813;85;21433;-76
2021/12/20 11:11:27;;;;;;;3.37;1.62;;;;;;;2.29;86.21;101289.62;1670571;85;20974;-75
2021/12/20 11:13:53;;;;;;;;;;;;;;;2.29;86.24;101296.88;1670151;85;21042;-77
2021/12/20 11:16:42;;;;;;;2.35;1.47;;;;;;;2.30;86.16;101299.02;1673011;85;20151;-75
2021/12/20 11:19:19;;;;;;;4.53;1.40;;;;;;;2.27;86.17;101305.30;1660791;84;20961;-75
2021/12/20 11:21:51;;;;;;;1.80;0.98;;;;;;;2.23;86.11;101304.77;1653963;83;20969;-75
2021/12/20 11:24:22;;;;;;;2.17;1.12;;;;;;;2.20;86.13;101307.22;1670069;84;20968;-75
2021/12/20 11:26:49;;;;;;;16.70;14.35;;;;;;;2.13;86.09;101307.86;1669808;84;21062;-75
2021/12/20 11:29:17;;;;;;;1.62;0.93;;;;;;;2.09;86.11;101310.73;1652740;84;21113;-75
2021/12/20 11:31:45;;;;;;;1.20;0.80;;;;;;;2.06;86.10;101311.95;1672204;84;21050;-76
2021/12/20 11:34:12;;;;;;;1.85;0.75;;;;;;;2.03;86.11;101322.06;1658476;84;20896;-76
2021/12/20 11:36:39;;;;;;;21.90;13.83;;;;;;;2.04;86.19;101322.52;1658684;84;21468;-76
2021/12/20 11:39:07;;;;;;;1.62;0.90;;;;;;;1.99;86.15;101328.75;1664811;84;23281;-75
2021/12/20 11:41:34;;;;;;;2.50;0.90;;;;;;;1.93;86.07;101328.57;1651617;84;21093;-75
2021/12/20 11:44:04;;;;;;;2.00;1.00;;;;;;;1.90;86.14;101324.66;1661285;84;21147;-75
2021/12/20 11:47:02;;;;;;;1.75;0.95;;;;;;;1.86;86.08;101329.20;1661163;84;21004;-75
2021/12/20 11:49:30;;;;;;;1.35;0.90;;;;;;;1.84;86.10;101329.97;1654455;84;21064;-75
2021/12/20 11:52:14;;;;;;;2.75;0.85;;;;;;;1.85;86.11;101321.09;1669192;83;21054;-75